Time;durP1;ratioP1;P1;durP2;ratioP2;P2;SDS_P1;SDS_P2;PMS_P1;PMS_P2;Temp;Humidity;BMP_temperature;BMP_pressure;BME280_temperature;BME280_humidity;BME280_pressure;Samples;Min_cycle;Max_cycle;Signal;HPM_P1;HPM_P2
2022/12/16 00:08:37;;;;;;;14.85;7.43;;;0.60;99.90;;;;;;6312433;22;20350;-93
2022/12/16 00:14:21;;;;;;;13.38;6.53;;;0.50;99.90;;;;;;6308979;22;20027;-92
2022/12/16 00:16:47;;;;;;;11.68;6.20;;;0.60;99.90;;;;;;6280690;22;20015;-90
2022/12/16 00:19:23;;;;;;;11.68;6.72;;;0.60;99.90;;;;;;6281564;22;20033;-91
2022/12/16 00:22:09;;;;;;;11.68;7.05;;;0.60;99.90;;;;;;6282436;22;20019;-90
2022/12/16 00:24:34;;;;;;;14.82;6.72;;;0.60;99.90;;;;;;6255710;22;20015;-90
2022/12/16 00:27:01;;;;;;;12.38;5.88;;;0.60;99.90;;;;;;6255960;22;20097;-90
2022/12/16 00:29:27;;;;;;;10.40;5.22;;;0.60;99.90;;;;;;6281555;22;20467;-90
2022/12/16 00:31:53;;;;;;;13.45;4.28;;;0.60;99.90;;;;;;6281501;22;20069;-90
2022/12/16 00:34:19;;;;;;;9.07;4.07;;;0.60;99.90;;;;;;6281501;22;20023;-90
2022/12/16 00:36:44;;;;;;;8.20;3.38;;;0.60;99.90;;;;;;6256437;22;20030;-90
2022/12/16 00:39:10;;;;;;;7.90;2.75;;;0.60;99.90;;;;;;6281518;22;20022;-91
2022/12/16 00:41:36;;;;;;;4.60;1.75;;;0.70;99.90;;;;;;6281348;22;20022;-90
2022/12/16 00:44:02;;;;;;;4.27;2.13;;;0.80;99.90;;;;;;6281718;22;20018;-91
2022/12/16 00:46:28;;;;;;;5.38;1.95;;;0.90;99.90;;;;;;6255956;22;20050;-90
2022/12/16 00:48:54;;;;;;;5.88;1.80;;;0.90;99.90;;;;;;6281585;22;20112;-91
2022/12/16 00:51:20;;;;;;;5.45;1.50;;;1.00;99.90;;;;;;6281445;22;20011;-91
2022/12/16 00:53:48;;;;;;;6.23;1.67;;;1.00;99.90;;;;;;6256051;22;20019;-91
2022/12/16 00:56:14;;;;;;;6.57;1.52;;;1.10;99.90;;;;;;6255864;22;20016;-91
2022/12/16 00:58:40;;;;;;;3.97;1.40;;;1.10;99.90;;;;;;6281780;22;20022;-91
2022/12/16 01:01:07;;;;;;;3.70;1.52;;;1.20;99.90;;;;;;6281365;22;20326;-91
2022/12/16 01:03:33;;;;;;;4.95;1.95;;;1.30;99.90;;;;;;6281685;22;20098;-92
2022/12/16 01:06:13;;;;;;;5.28;1.90;;;1.30;99.90;;;;;;6281871;22;20015;-91
2022/12/16 01:08:47;;;;;;;5.97;2.10;;;1.30;99.90;;;;;;6282233;22;20325;-94
2022/12/16 01:11:17;;;;;;;3.63;1.48;;;1.40;99.90;;;;;;6281348;22;20411;-94
2022/12/16 01:13:43;;;;;;;7.07;2.03;;;1.40;99.90;;;;;;6255635;22;20015;-91
2022/12/16 01:16:09;;;;;;;4.65;1.95;;;1.40;99.90;;;;;;6280870;22;20025;-92
2022/12/16 01:18:35;;;;;;;4.93;2.00;;;1.40;99.90;;;;;;6281271;22;20070;-92
2022/12/16 01:21:05;;;;;;;6.35;1.85;;;1.50;99.90;;;;;;6281280;22;20023;-91
2022/12/16 01:23:31;;;;;;;4.93;1.83;;;1.50;99.90;;;;;;6281294;22;20061;-92
2022/12/16 01:26:17;;;;;;;3.45;1.30;;;1.50;99.90;;;;;;6281464;22;20020;-92
2022/12/16 01:28:52;;;;;;;3.72;1.70;;;1.50;99.90;;;;;;6307211;22;20023;-91
2022/12/16 01:31:20;;;;;;;3.50;1.70;;;1.50;99.90;;;;;;6281138;22;20027;-92
2022/12/16 01:33:45;;;;;;;;;;;1.50;99.90;;;;;;6281641;22;20084;-91
2022/12/16 01:36:11;;;;;;;3.85;1.77;;;1.50;99.90;;;;;;6281161;22;19918;-91
2022/12/16 01:38:53;;;;;;;5.45;1.67;;;1.50;99.90;;;;;;6281220;22;20553;-93
2022/12/16 01:41:18;;;;;;;5.32;1.60;;;1.50;99.90;;;;;;6280591;22;20074;-91
2022/12/16 01:43:47;;;;;;;7.97;1.75;;;1.50;99.90;;;;;;6281702;22;20018;-91
2022/12/16 01:46:18;;;;;;;3.42;1.38;;;1.60;99.90;;;;;;6281175;22;20043;-91
2022/12/16 01:49:01;;;;;;;4.40;1.75;;;1.60;99.90;;;;;;6281241;22;20068;-92
2022/12/16 01:51:34;;;;;;;3.78;1.75;;;1.60;99.90;;;;;;6281228;22;20043;-92
2022/12/16 01:54:03;;;;;;;3.72;1.83;;;1.60;99.90;;;;;;6281187;22;20091;-92
2022/12/16 01:56:31;;;;;;;3.42;1.38;;;1.70;99.90;;;;;;6280762;22;20145;-92
2022/12/16 01:58:59;;;;;;;4.40;1.73;;;1.70;99.90;;;;;;6281256;22;20464;-92
2022/12/16 02:01:25;;;;;;;5.25;1.92;;;1.70;99.90;;;;;;6281057;22;20022;-93
2022/12/16 02:03:53;;;;;;;3.72;1.70;;;1.70;99.90;;;;;;6281134;22;20051;-92
2022/12/16 02:06:19;;;;;;;3.72;1.80;;;1.70;99.90;;;;;;6280990;22;20033;-92
2022/12/16 02:08:45;;;;;;;4.90;1.60;;;1.70;99.90;;;;;;6255531;22;20015;-93
2022/12/16 02:11:43;;;;;;;4.97;1.55;;;1.70;99.90;;;;;;6255616;22;20051;-92
2022/12/16 02:14:21;;;;;;;3.63;1.65;;;1.70;99.90;;;;;;6239377;22;20164;-94
2022/12/16 02:24:05;;;;;;;4.35;1.38;;;1.80;99.90;;;;;;6173564;23;20539;-92
2022/12/16 02:26:59;;;;;;;3.70;1.45;;;1.80;99.90;;;;;;6164328;23;20136;-92
2022/12/16 02:29:38;;;;;;;3.40;0.98;;;1.80;99.90;;;;;;6282949;22;20092;-92
2022/12/16 02:32:11;;;;;;;3.05;1.23;;;1.70;99.90;;;;;;6282940;22;20015;-93
2022/12/16 02:35:05;;;;;;;3.38;1.33;;;1.70;99.90;;;;;;6283097;22;20045;-92
2022/12/16 02:37:40;;;;;;;4.38;1.52;;;1.70;99.90;;;;;;6283023;22;20015;-92
2022/12/16 02:40:19;;;;;;;3.92;2.00;;;1.70;99.90;;;;;;6282729;22;20019;-92
2022/12/16 02:42:50;;;;;;;4.38;1.60;;;1.70;99.90;;;;;;6281364;22;20026;-92
2022/12/16 02:45:24;;;;;;;4.03;1.42;;;1.70;99.90;;;;;;6282790;22;20022;-92
2022/12/16 02:47:50;;;;;;;4.25;1.60;;;1.70;99.90;;;;;;6282455;22;20077;-92
2022/12/16 02:50:49;;;;;;;5.20;2.05;;;1.70;99.90;;;;;;6282521;22;20015;-92
2022/12/16 03:08:53;;;;;;;9.48;5.07;;;1.80;99.90;;;;;;6253691;22;20020;-91
2022/12/16 03:11:34;;;;;;;;;;;;;;;;;;;;;
2022/12/16 03:14:26;;;;;;;10.65;5.35;;;1.90;99.90;;;;;;6239606;22;20016;-90
2022/12/16 03:16:52;;;;;;;11.38;6.05;;;1.90;99.90;;;;;;6226564;22;20073;-92
2022/12/16 03:19:41;;;;;;;14.07;7.10;;;2.00;99.90;;;;;;6226362;22;20094;-90
2022/12/16 03:22:15;;;;;;;15.20;6.95;;;2.00;99.90;;;;;;6226096;22;20020;-92
2022/12/16 03:24:41;;;;;;;14.07;7.70;;;2.00;99.90;;;;;;6226312;22;20463;-91
2022/12/16 03:27:46;;;;;;;16.02;8.23;;;2.00;99.90;;;;;;6226089;22;20020;-92
2022/12/16 03:30:17;;;;;;;13.25;7.45;;;2.00;99.90;;;;;;6226101;22;20058;-89
2022/12/16 03:32:51;;;;;;;17.52;9.15;;;2.00;99.90;;;;;;6226155;22;20015;-89
2022/12/16 03:36:03;;;;;;;19.27;9.32;;;2.10;99.90;;;;;;6226064;22;20065;-90
2022/12/16 03:38:31;;;;;;;16.95;8.93;;;2.00;99.90;;;;;;6225404;22;20016;-93
2022/12/16 03:40:58;;;;;;;18.25;9.48;;;2.00;99.90;;;;;;6225467;22;20015;-92
2022/12/16 03:43:24;;;;;;;19.08;8.68;;;2.00;99.90;;;;;;6226020;22;20071;-93
2022/12/16 03:45:55;;;;;;;20.63;9.40;;;1.90;99.90;;;;;;6225966;22;20077;-93
2022/12/16 03:48:25;;;;;;;17.33;9.55;;;1.90;99.90;;;;;;6226031;22;20016;-92
2022/12/16 03:50:51;;;;;;;18.77;9.55;;;1.80;99.90;;;;;;6201254;22;20015;-93
2022/12/16 03:53:17;;;;;;;18.02;9.07;;;1.90;99.90;;;;;;6226003;22;20073;-92
2022/12/16 03:55:44;;;;;;;18.67;9.57;;;1.80;99.90;;;;;;6201193;22;20015;-95
2022/12/16 03:58:10;;;;;;;19.17;9.05;;;1.70;99.90;;;;;;6176590;22;20051;-91
2022/12/16 04:00:36;;;;;;;19.48;9.95;;;1.70;99.90;;;;;;6176397;22;20023;-90
2022/12/16 04:03:01;;;;;;;25.77;10.53;;;1.60;99.90;;;;;;6225634;22;20016;-90
2022/12/16 04:05:27;;;;;;;21.80;10.52;;;1.60;99.90;;;;;;6226150;22;20095;-90
2022/12/16 04:07:53;;;;;;;16.95;9.52;;;1.50;99.90;;;;;;6226090;22;20463;-92
2022/12/16 04:24:17;;;;;;;18.55;10.05;;;1.50;99.90;;;;;;6200709;22;20016;-91
2022/12/16 04:24:22;;;;;;;19.42;10.48;;;1.30;99.90;;;;;;6251291;22;20019;-93
2022/12/16 04:29:33;;;;;;;20.92;10.85;;;1.30;99.90;;;;;;6250744;22;20381;-91
2022/12/16 04:34:24;;;;;;;20.58;9.68;;;1.20;99.90;;;;;;6225693;22;20058;-90
